Skip to main content.
Our real time weather data display below is updated continuously via our 24/7 live data feed.
 TIME   TEMPERATURE   WINDSPEED   DIRECTION   HUMIDITY   BAROMETER   RAINFALL 
4:40 24.9°C (76.8°F) 0.0 kmh (0.0 mph) E 87% 1011.2hPa (29.86 inHg) 0.0mm (0.00 in.)
3:40 24.9°C (76.8 °F) 3.7 kmh (2.3 mph) SSE 93% 1011.3hPa (29.86 inHg) 0.0mm (0.00 in.)
2:40 25.2°C (77.4 °F) 1.9 kmh (1.2 mph) SSW 93% 1011.2hPa (29.86 inHg) 0.0mm (0.00 in.)
1:40 25.4°C (77.7 °F) 0.0 kmh (0.0 mph) W 91% 1011.8hPa (29.88 inHg) 0.0mm (0.00 in.)
12:40 25.5°C (77.9 °F) 0.0 kmh (0.0 mph) W 91% 1011.8hPa (29.88 inHg) 0.0mm (0.00 in.)
11:40 25.7°C (78.3 °F) 0.0 kmh (0.0 mph) W 90% 1011.4hPa (29.87 inHg) 0.0mm (0.00 in.)
10:40 26.0°C (78.8 °F) 1.9 kmh (1.2 mph) W 88% 1011.2hPa (29.86 inHg) 0.0mm (0.00 in.)
9:40 26.0°C (78.8 °F) 9.3 kmh (5.8 mph) NNE 89% 1011.4hPa (29.87 inHg) 0.0mm (0.00 in.)
8:40 25.9°C (78.6 °F) 3.7 kmh (2.3 mph) WNW 91% 1011.0hPa (29.85 inHg) 0.0mm (0.00 in.)
7:40 26.2°C (79.2 °F) 20.4 kmh (12.7 mph) NNW 88% 1010.7hPa (29.85 inHg) 0.0mm (0.00 in.)
6:40 26.6°C (79.9 °F) 20.4 kmh (12.7 mph) N 86% 1010.9hPa (29.85 inHg) 0.0mm (0.00 in.)
5:40 27.3°C (81.1 °F) 11.1 kmh (6.9 mph) NE 82% 1011.1hPa (29.86 inHg) 0.0mm (0.00 in.)
4:40 27.3°C (81.1 °F) 14.8 kmh (9.2 mph) NNW 83% 1011.1hPa (29.86 inHg) 0.0mm (0.00 in.)
3:40 27.9°C (82.2 °F) 22.2 kmh (13.8 mph) NNE 78% 1010.8hPa (29.85 inHg) 0.0mm (0.00 in.)
2:40 28.3°C (82.9 °F) 16.7 kmh (10.4 mph) N 76% 1011.4hPa (29.87 inHg) 0.0mm (0.00 in.)
1:40 28.4°C (83.1 °F) 33.3 kmh (20.7 mph) NNW 73% 1011.6hPa (29.87 inHg) 0.0mm (0.00 in.)
12:40 28.1°C (82.6 °F) 11.1 kmh (6.9 mph) N 74% 1011.9hPa (29.88 inHg) 0.0mm (0.00 in.)
11:40 27.3°C (81.1 °F) 35.2 kmh (21.9 mph) NNE 78% 1012.3hPa (29.89 inHg) 0.0mm (0.00 in.)
10:40 27.2°C (81.0 °F) 22.2 kmh (13.8 mph) NNE 80% 1012.3hPa (29.89 inHg) 0.0mm (0.00 in.)
9:40 26.7°C (80.1 °F) 24.1 kmh (15.0 mph) NNW 81% 1012.2hPa (29.89 inHg) 0.0mm (0.00 in.)
8:40 26.2°C (79.2 °F) 22.2 kmh (13.8 mph) NNE 81% 1012.0hPa (29.88 inHg) 0.0mm (0.00 in.)
7:40 25.4°C (77.7 °F) 14.8 kmh (9.2 mph) N 86% 1011.9hPa (29.88 inHg) 0.0mm (0.00 in.)
6:40 24.9°C (76.8 °F) 16.7 kmh (10.4 mph) N 92% 1011.9hPa (29.88 inHg) 0.0mm (0.00 in.)
5:40 25.1°C (77.2 °F) 22.2 kmh (13.8 mph) NNW 93% 1011.8hPa (29.88 inHg) 0.0mm (0.00 in.)